Time;durP1;ratioP1;P1;durP2;ratioP2;P2;SDS_P1;SDS_P2;PMS_P1;PMS_P2;Temp;Humidity;BMP_temperature;BMP_pressure;BME280_temperature;BME280_humidity;BME280_pressure;Samples;Min_cycle;Max_cycle;Signal;HPM_P1;HPM_P2
2022/09/28 00:01:07;;;;;;;44.47;31.90;;;;;;;6.08;100.00;99510.47;5133519;27;20026;-47
2022/09/28 00:03:32;;;;;;;45.92;34.30;;;;;;;6.10;100.00;99513.94;5133900;27;20079;-44
2022/09/28 00:06:07;;;;;;;45.85;36.17;;;;;;;6.11;100.00;99518.22;5134109;27;20019;-47
2022/09/28 00:08:34;;;;;;;50.92;37.47;;;;;;;6.13;100.00;99521.69;5132908;27;20031;-44
2022/09/28 00:10:59;;;;;;;63.40;38.63;;;;;;;6.16;100.00;99508.09;5134284;27;20063;-46
2022/09/28 00:13:25;;;;;;;50.83;39.97;;;;;;;6.18;100.00;99509.03;5134144;27;20062;-46
2022/09/28 00:16:05;;;;;;;50.83;39.03;;;;;;;6.19;100.00;99501.38;5132947;27;20027;-47
2022/09/28 00:18:31;;;;;;;51.55;39.58;;;;;;;6.20;100.00;99509.94;5133820;27;20039;-46
2022/09/28 00:21:02;;;;;;;50.63;39.90;;;;;;;6.20;100.00;99503.13;5134055;27;20023;-49
2022/09/28 00:23:27;;;;;;;53.63;41.30;;;;;;;6.23;100.00;99498.06;5133221;27;20027;-48
2022/09/28 00:25:53;;;;;;;49.08;39.33;;;;;;;6.23;100.00;99492.94;5133767;27;20026;-45
2022/09/28 00:28:18;;;;;;;50.17;39.63;;;;;;;6.25;100.00;99488.75;5133942;27;20470;-44
2022/09/28 00:30:43;;;;;;;54.85;40.20;;;;;;;6.23;100.00;99487.81;5133255;28;20042;-46
2022/09/28 00:33:08;;;;;;;46.80;36.47;;;;;;;6.20;100.00;99486.91;5133778;28;20526;-46
2022/09/28 00:35:34;;;;;;;47.55;36.50;;;;;;;6.18;100.00;99486.00;5133603;28;20042;-47
2022/09/28 00:38:01;;;;;;;44.30;36.05;;;;;;;6.18;100.00;99479.19;5132979;28;20470;-48
2022/09/28 00:40:26;;;;;;;44.78;34.30;;;;;;;6.16;100.00;99473.16;5133846;28;20023;-46
2022/09/28 00:42:51;;;;;;;41.58;32.85;;;;;;;6.14;100.00;99477.38;5132582;28;20066;-44
2022/09/28 00:45:17;;;;;;;41.58;33.22;;;;;;;6.13;100.00;99480.75;5133688;28;20115;-47
2022/09/28 00:47:55;;;;;;;38.55;32.22;;;;;;;6.09;100.00;99479.84;5133285;28;20020;-47
2022/09/28 00:50:25;;;;;;;36.83;30.13;;;;;;;6.06;100.00;99472.06;5133080;28;20211;-45
2022/09/28 00:53:09;;;;;;;35.85;29.88;;;;;;;6.09;100.00;99474.72;5133567;28;20114;-48
2022/09/28 00:55:49;;;;;;;38.10;29.13;;;;;;;6.09;100.00;99477.28;5133361;28;20576;-46
2022/09/28 00:58:20;;;;;;;35.17;29.90;;;;;;;6.10;100.00;99475.56;5132843;28;20026;-46
2022/09/28 01:00:47;;;;;;;37.10;29.85;;;;;;;6.11;100.00;99474.75;5133499;28;20023;-49
2022/09/28 01:03:13;;;;;;;36.08;30.40;;;;;;;6.14;100.00;99479.06;5133710;28;20031;-44
2022/09/28 01:05:39;;;;;;;34.83;30.33;;;;;;;6.19;100.00;99469.81;5132546;28;20077;-46
2022/09/28 01:08:04;;;;;;;35.03;31.02;;;;;;;6.20;100.00;99472.41;5133422;28;20062;-46
2022/09/28 01:10:30;;;;;;;39.53;30.20;;;;;;;6.20;100.00;99472.41;5133458;27;20058;-45
2022/09/28 01:12:56;;;;;;;36.85;29.02;;;;;;;6.17;100.00;99467.25;5136765;27;20026;-46
2022/09/28 01:15:24;;;;;;;37.92;30.77;;;;;;;6.20;100.00;99472.41;5137505;27;20031;-49
2022/09/28 01:18:09;;;;;;;39.33;28.88;;;;;;;6.18;100.00;99471.50;5137256;27;20027;-50
2022/09/28 01:20:50;;;;;;;32.38;27.67;;;;;;;6.15;100.00;99471.44;5137119;27;20037;-46
2022/09/28 01:23:36;;;;;;;32.45;27.27;;;;;;;6.11;100.00;99472.19;5137199;27;20020;-45
2022/09/28 01:26:20;;;;;;;31.17;26.75;;;;;;;6.10;100.00;99471.31;5136355;27;20066;-47
2022/09/28 01:28:49;;;;;;;33.33;27.63;;;;;;;6.05;100.00;99469.47;5136874;27;20115;-45
2022/09/28 01:31:17;;;;;;;37.45;28.60;;;;;;;6.00;100.00;99476.16;5137008;27;20048;-45
2022/09/28 01:33:47;;;;;;;37.42;27.75;;;;;;;5.96;100.00;99476.88;5136232;27;20050;-45
2022/09/28 01:36:21;;;;;;;37.88;29.90;;;;;;;5.98;100.00;99477.75;5137128;27;20124;-46
2022/09/28 01:38:50;;;;;;;38.50;31.25;;;;;;;5.93;100.00;99478.50;5136841;27;20035;-46
2022/09/28 01:41:16;;;;;;;45.55;33.67;;;;;;;5.93;100.00;99475.97;5136054;27;20413;-50
2022/09/28 01:43:48;;;;;;;42.55;33.67;;;;;;;5.94;100.00;99480.25;5136386;27;20449;-46
2022/09/28 01:46:20;;;;;;;43.67;35.53;;;;;;;5.93;100.00;99483.63;5135999;27;20523;-47
2022/09/28 01:48:52;;;;;;;44.90;35.67;;;;;;;5.99;100.00;99492.31;5136676;27;20037;-47
2022/09/28 01:51:34;;;;;;;47.88;37.85;;;;;;;6.02;100.00;99489.88;5136945;27;20015;-44
2022/09/28 01:54:10;;;;;;;53.25;39.78;;;;;;;6.04;100.00;99483.06;5135856;27;20023;-48
2022/09/28 01:56:42;;;;;;;51.63;40.67;;;;;;;6.06;100.00;99489.13;5136320;27;20012;-47
2022/09/28 01:59:14;;;;;;;51.95;41.55;;;;;;;6.07;100.00;99484.03;5136731;27;20061;-45
2022/09/28 02:01:44;;;;;;;56.47;43.55;;;;;;;6.09;100.00;99484.06;5135545;27;20023;-45
2022/09/28 02:04:39;;;;;;;62.90;45.15;;;;;;;6.14;100.00;99481.63;5136551;27;20055;-49
2022/09/28 02:07:23;;;;;;;57.78;44.58;;;;;;;6.17;100.00;99480.03;5133980;27;20110;-47
2022/09/28 02:09:56;;;;;;;60.90;45.30;;;;;;;6.17;100.00;99477.47;5136289;27;20023;-45
2022/09/28 02:12:30;;;;;;;59.65;47.72;;;;;;;6.21;100.00;99476.72;5136433;27;20027;-45
2022/09/28 02:15:04;;;;;;;62.25;48.28;;;;;;;6.22;100.00;99475.00;5135379;27;20434;-46
2022/09/28 02:17:29;;;;;;;62.97;48.05;;;;;;;6.23;100.00;99472.47;5136440;27;20031;-46
2022/09/28 02:19:54;;;;;;;61.55;48.17;;;;;;;6.23;100.00;99477.59;5136072;27;20027;-45
2022/09/28 02:22:29;;;;;;;62.40;48.55;;;;;;;6.24;100.00;99474.22;5135711;27;20038;-44
2022/09/28 02:25:02;;;;;;;57.13;44.78;;;;;;;6.23;100.00;99474.19;5136076;27;20023;-47
2022/09/28 02:27:47;;;;;;;55.45;44.78;;;;;;;6.22;100.00;99475.88;5136023;27;20059;-46
2022/09/28 02:30:13;;;;;;;55.03;44.50;;;;;;;6.22;100.00;99481.00;5120604;27;20423;-47
2022/09/28 02:32:44;;;;;;;51.88;43.15;;;;;;;6.21;100.00;99479.28;5135786;27;20058;-45
2022/09/28 02:35:12;;;;;;;52.30;41.35;;;;;;;6.19;100.00;99475.78;5136077;27;20038;-50
2022/09/28 02:37:38;;;;;;;53.03;40.08;;;;;;;6.20;100.00;99469.84;5134768;27;20019;-45
2022/09/28 02:40:14;;;;;;;51.33;38.67;;;;;;;6.20;100.00;99474.97;5135764;27;20066;-45
2022/09/28 02:42:58;;;;;;;44.60;36.63;;;;;;;6.22;100.00;99475.88;5134668;27;20054;-45
2022/09/28 02:45:32;;;;;;;45.30;35.03;;;;;;;6.21;100.00;99473.28;5135809;27;20033;-50
2022/09/28 02:48:13;;;;;;;44.22;33.95;;;;;;;6.17;100.00;99479.13;5135545;27;20027;-47
2022/09/28 02:50:58;;;;;;;43.65;34.83;;;;;;;6.17;100.00;99485.16;5134482;27;20031;-48
2022/09/28 02:54:00;;;;;;;44.47;33.70;;;;;;;6.15;100.00;99483.38;5135732;27;20069;-47
2022/09/28 02:56:46;;;;;;;40.65;30.42;;;;;;;6.10;100.00;99483.25;5135038;27;20487;-45
2022/09/28 02:59:32;;;;;;;45.97;33.95;;;;;;;6.12;100.00;99478.16;5135374;27;20466;-46
2022/09/28 03:02:00;;;;;;;40.55;31.95;;;;;;;6.10;100.00;99488.34;5083329;27;20035;-45
2022/09/28 03:04:55;;;;;;;37.28;30.10;;;;;;;6.08;100.00;99487.44;5134526;27;20030;-47
2022/09/28 03:07:27;;;;;;;39.38;30.50;;;;;;;6.06;100.00;99479.72;5135170;27;20035;-45
2022/09/28 03:09:55;;;;;;;38.20;28.50;;;;;;;6.07;100.00;99484.03;5135094;27;20095;-45
2022/09/28 03:12:23;;;;;;;37.88;28.05;;;;;;;6.08;100.00;99482.31;5134347;27;20051;-48
2022/09/28 03:15:05;;;;;;;34.83;25.63;;;;;;;6.10;100.00;99483.25;5134886;27;20027;-45
2022/09/28 03:17:30;;;;;;;31.20;24.92;;;;;;;6.10;100.00;99480.69;5134608;27;20026;-45
2022/09/28 03:19:55;;;;;;;29.98;23.88;;;;;;;6.11;100.00;99482.41;5134588;27;20027;-47
2022/09/28 03:22:21;;;;;;;31.40;23.90;;;;;;;6.10;100.00;99484.09;5135128;27;20025;-45
2022/09/28 03:24:46;;;;;;;32.72;22.17;;;;;;;6.12;100.00;99484.16;5133908;27;20054;-47
2022/09/28 03:27:11;;;;;;;30.00;21.52;;;;;;;6.12;100.00;99480.72;5134972;27;20064;-45
2022/09/28 03:29:37;;;;;;;33.10;21.30;;;;;;;6.10;100.00;99485.81;5134580;27;20501;-45
2022/09/28 03:32:02;;;;;;;25.10;19.85;;;;;;;6.05;100.00;99480.56;5133865;27;20071;-45
2022/09/28 03:34:27;;;;;;;26.23;19.02;;;;;;;6.07;100.00;99485.72;5134274;27;20016;-49
2022/09/28 03:36:52;;;;;;;25.15;18.27;;;;;;;6.03;100.00;99479.66;5134618;27;20378;-49
2022/09/28 03:39:18;;;;;;;21.65;17.77;;;;;;;6.04;100.00;99475.41;5133754;27;20038;-46
2022/09/28 03:41:43;;;;;;;23.35;16.92;;;;;;;5.97;100.00;99481.19;5134211;27;20510;-49
2022/09/28 03:44:08;;;;;;;20.80;16.08;;;;;;;6.00;100.00;99484.69;5134632;27;20027;-45
2022/09/28 03:46:33;;;;;;;23.10;17.00;;;;;;;5.98;100.00;99482.88;5133526;27;20026;-44
2022/09/28 03:48:59;;;;;;;23.80;17.05;;;;;;;5.99;100.00;99482.97;5134414;27;20110;-46
2022/09/28 03:51:25;;;;;;;25.23;16.58;;;;;;;6.04;100.00;99483.06;5134522;27;20020;-45
2022/09/28 03:53:50;;;;;;;22.83;15.40;;;;;;;6.03;100.00;99483.91;5133365;27;20042;-47
2022/09/28 03:56:16;;;;;;;24.25;14.55;;;;;;;6.03;100.00;99494.13;5134458;27;20030;-45
2022/09/28 03:58:41;;;;;;;22.38;14.60;;;;;;;6.04;100.00;99486.53;5134092;27;20023;-51
2022/09/28 04:01:11;;;;;;;19.35;14.27;;;;;;;6.07;100.00;99495.97;5133504;27;20470;-48
2022/09/28 04:03:36;;;;;;;18.30;12.95;;;;;;;6.07;100.00;99486.59;5133876;27;20079;-48
2022/09/28 04:06:02;;;;;;;17.52;12.90;;;;;;;6.09;100.00;99491.75;5134359;27;20019;-44
2022/09/28 04:08:27;;;;;;;18.20;13.48;;;;;;;6.09;100.00;99494.28;5133383;27;20389;-46
2022/09/28 04:10:59;;;;;;;21.45;12.88;;;;;;;6.07;100.00;99490.84;5133994;27;20398;-44
2022/09/28 04:13:26;;;;;;;18.77;12.10;;;;;;;6.07;100.00;99498.53;5134357;27;20034;-45
2022/09/28 04:15:54;;;;;;;18.92;11.70;;;;;;;6.07;100.00;99496.81;5133472;27;20035;-45
2022/09/28 04:18:19;;;;;;;18.25;11.52;;;;;;;6.07;100.00;99491.69;5134301;27;20034;-45
2022/09/28 04:20:46;;;;;;;21.08;11.00;;;;;;;6.07;100.00;99495.97;5133997;27;20019;-46
2022/09/28 04:23:12;;;;;;;18.15;10.20;;;;;;;6.05;100.00;99493.34;5133327;27;20023;-48
2022/09/28 04:25:38;;;;;;;18.25;10.20;;;;;;;6.03;100.00;99484.78;5133815;27;20104;-45
2022/09/28 04:30:48;;;;;;;13.90;9.23;;;;;;;6.02;100.00;99482.19;5134408;27;20062;-44
2022/09/28 04:33:13;;;;;;;15.60;9.68;;;;;;;6.02;100.00;99487.31;5134325;28;20390;-45
2022/09/28 04:35:38;;;;;;;15.55;9.30;;;;;;;5.98;100.00;99470.09;5132867;28;20072;-45
2022/09/28 04:38:04;;;;;;;13.10;9.40;;;;;;;5.91;100.00;99474.19;5134016;28;20482;-44
2022/09/28 04:40:29;;;;;;;13.63;8.20;;;;;;;5.84;100.00;99475.72;5133816;28;20023;-45
2022/09/28 04:42:55;;;;;;;16.85;8.15;;;;;;;5.85;100.00;99474.91;5132592;28;20036;-45
2022/09/28 04:45:22;;;;;;;14.73;7.93;;;;;;;5.82;100.00;99468.84;5133745;27;20031;-45
2022/09/28 04:47:47;;;;;;;12.10;7.68;;;;;;;5.75;100.00;99478.03;5137739;27;20539;-46
2022/09/28 04:50:12;;;;;;;12.32;6.68;;;;;;;5.73;100.00;99479.69;5137273;27;20543;-45
2022/09/28 04:52:38;;;;;;;12.18;6.90;;;;;;;5.72;100.00;99483.94;5137754;27;20023;-44
2022/09/28 04:55:05;;;;;;;13.27;6.97;;;;;;;5.71;100.00;99491.56;5137936;27;20027;-47
2022/09/28 04:57:33;;;;;;;10.25;6.32;;;;;;;5.69;100.00;99495.75;5136752;27;20124;-45
2022/09/28 04:59:58;;;;;;;12.57;6.78;;;;;;;5.64;100.00;99499.88;5137647;27;20023;-48
2022/09/28 05:02:23;;;;;;;11.75;5.90;;;;;;;5.54;100.00;99502.19;5137876;27;20023;-45
2022/09/28 05:04:48;;;;;;;12.45;6.68;;;;;;;5.60;100.00;99504.91;5136839;27;20020;-46
2022/09/28 05:07:14;;;;;;;15.32;6.80;;;;;;;5.61;100.00;99496.41;5137778;27;20019;-47
2022/09/28 05:09:39;;;;;;;12.35;7.15;;;;;;;5.64;100.00;99505.00;5137399;27;20420;-46
2022/09/28 05:12:04;;;;;;;17.02;7.20;;;;;;;5.63;100.00;99513.47;5137196;27;20030;-45
2022/09/28 05:14:30;;;;;;;14.68;7.13;;;;;;;5.68;100.00;99504.25;5137499;27;20510;-46
2022/09/28 05:16:55;;;;;;;14.23;7.72;;;;;;;5.66;100.00;99503.34;5137487;27;20027;-45
2022/09/28 05:19:20;;;;;;;12.57;6.97;;;;;;;5.69;100.00;99498.31;5136664;27;20026;-46
2022/09/28 05:21:47;;;;;;;15.32;7.75;;;;;;;5.70;100.00;99498.34;5137127;27;20034;-46
2022/09/28 05:24:13;;;;;;;12.30;6.57;;;;;;;5.70;100.00;99500.91;5136629;27;20072;-44
2022/09/28 05:26:38;;;;;;;10.68;6.28;;;;;;;5.69;100.00;99506.84;5136902;27;20046;-51
2022/09/28 05:29:03;;;;;;;11.32;6.13;;;;;;;5.68;100.00;99512.81;5137100;27;20138;-49
2022/09/28 05:31:29;;;;;;;8.88;5.38;;;;;;;5.62;100.00;99510.06;5136422;27;20034;-45
2022/09/28 05:33:54;;;;;;;8.68;5.07;;;;;;;5.62;100.00;99504.97;5137042;27;20389;-49
2022/09/28 05:36:20;;;;;;;7.47;4.95;;;;;;;5.59;100.00;99505.75;5136942;27;20027;-50
2022/09/28 05:38:45;;;;;;;9.07;5.10;;;;;;;5.57;100.00;99507.38;5136037;27;20033;-50
2022/09/28 05:41:11;;;;;;;11.93;5.18;;;;;;;5.50;100.00;99508.03;5136944;27;20398;-50
2022/09/28 05:43:37;;;;;;;11.88;5.28;;;;;;;5.51;100.00;99501.22;5135243;27;20039;-48
2022/09/28 05:46:03;;;;;;;13.93;5.47;;;;;;;5.44;100.00;99500.19;5134790;28;20478;-51
2022/09/28 05:48:28;;;;;;;9.15;5.00;;;;;;;5.47;100.00;99504.53;5135391;28;20386;-50
2022/09/28 05:50:54;;;;;;;8.90;5.05;;;;;;;5.42;100.00;99502.72;5135432;28;20030;-49
2022/09/28 05:53:19;;;;;;;10.68;5.07;;;;;;;5.44;100.00;99500.19;5134856;28;20047;-47
2022/09/28 05:55:46;;;;;;;11.18;4.97;;;;;;;5.38;100.00;99503.41;5135272;28;20046;-48
2022/09/28 05:58:11;;;;;;;10.70;5.50;;;;;;;5.41;100.00;99512.88;5135018;27;20030;-51
2022/09/28 06:00:36;;;;;;;12.25;5.43;;;;;;;5.41;100.00;99507.75;5134537;28;20102;-49
2022/09/28 06:03:05;;;;;;;11.82;5.70;;;;;;;5.44;100.00;99512.97;5135297;28;20422;-47
2022/09/28 06:05:32;;;;;;;12.13;5.65;;;;;;;5.50;100.00;99523.38;5135269;28;20019;-45
2022/09/28 06:07:58;;;;;;;8.00;6.60;;;;;;;5.55;100.00;99524.38;5134596;28;20106;-50
2022/09/28 06:10:25;;;;;;;13.27;6.53;;;;;;;5.55;100.00;99521.81;5135215;28;20102;-47
2022/09/28 06:12:54;;;;;;;11.18;6.30;;;;;;;5.56;100.00;99523.53;5134845;28;20466;-50
2022/09/28 06:15:21;;;;;;;11.55;6.20;;;;;;;5.56;100.00;99526.06;5134547;28;20027;-48
2022/09/28 06:17:47;;;;;;;11.48;5.80;;;;;;;5.57;100.00;99532.06;5134872;28;20435;-50
2022/09/28 06:20:12;;;;;;;11.35;7.32;;;;;;;5.54;100.00;99535.41;5135217;28;20053;-49
2022/09/28 06:22:38;;;;;;;18.30;7.90;;;;;;;5.53;100.00;99536.22;5133938;28;20019;-49
2022/09/28 06:25:05;;;;;;;11.10;7.15;;;;;;;5.53;100.00;99533.66;5135038;28;20454;-45
2022/09/28 06:27:31;;;;;;;14.18;8.52;;;;;;;5.45;100.00;99530.03;5134099;28;20044;-48
2022/09/28 06:29:56;;;;;;;15.50;8.15;;;;;;;5.50;100.00;99530.16;5135044;28;20031;-49
2022/09/28 06:32:21;;;;;;;13.02;9.73;;;;;;;5.51;100.00;99534.44;5135019;28;20030;-48
2022/09/28 06:34:47;;;;;;;14.98;10.75;;;;;;;5.55;100.00;99536.25;5133730;28;20641;-47
2022/09/28 06:37:12;;;;;;;16.63;11.77;;;;;;;5.55;100.00;99529.47;5134779;28;20019;-48
2022/09/28 06:39:37;;;;;;;16.33;10.25;;;;;;;5.54;100.00;99534.53;5134382;28;20020;-49
2022/09/28 06:42:03;;;;;;;15.85;11.57;;;;;;;5.65;100.00;99533.16;5097668;27;1036258;-49
2022/09/28 06:44:29;;;;;;;16.38;11.15;;;;;;;5.68;100.00;99537.47;5135947;27;20030;-50
2022/09/28 06:46:57;;;;;;;21.15;12.48;;;;;;;5.72;100.00;99546.97;5135607;27;20178;-50
2022/09/28 06:49:23;;;;;;;18.00;12.75;;;;;;;5.80;100.00;99545.50;5135426;27;20037;-49
2022/09/28 06:51:49;;;;;;;19.75;13.25;;;;;;;5.88;100.00;99536.34;5135403;27;20019;-49
2022/09/28 06:54:14;;;;;;;21.33;13.40;;;;;;;6.00;100.00;99547.75;5135355;27;20371;-49
2022/09/28 06:56:39;;;;;;;17.70;13.63;;;;;;;6.07;100.00;99552.25;5134600;27;20626;-50
2022/09/28 06:59:05;;;;;;;17.13;13.40;;;;;;;6.16;100.00;99557.59;5135577;27;20046;-49
2022/09/28 07:01:30;;;;;;;17.55;13.00;;;;;;;6.22;100.00;99554.31;5135143;27;20144;-44
2022/09/28 07:03:56;;;;;;;17.67;12.52;;;;;;;6.23;100.00;99558.63;5134528;27;20023;-48
2022/09/28 07:06:23;;;;;;;17.15;12.82;;;;;;;6.26;100.00;99561.25;5135366;27;20098;-49
2022/09/28 07:08:49;;;;;;;17.77;13.23;;;;;;;6.34;100.00;99562.31;5134129;27;20035;-49
2022/09/28 07:11:14;;;;;;;18.83;12.75;;;;;;;6.44;100.00;99563.41;5134243;27;20482;-46
2022/09/28 07:13:40;;;;;;;17.27;12.15;;;;;;;6.53;100.00;99562.78;5134949;27;20035;-51
2022/09/28 07:16:05;;;;;;;17.80;12.40;;;;;;;6.60;100.00;99559.56;5135071;27;20098;-48
2022/09/28 07:18:31;;;;;;;19.33;12.77;;;;;;;6.74;100.00;99562.47;5134063;27;20035;-46
2022/09/28 07:20:57;;;;;;;16.90;12.32;;;;;;;6.77;100.00;99565.09;5135166;27;20045;-49
2022/09/28 07:23:23;;;;;;;15.38;13.23;;;;;;;6.95;100.00;99566.38;5134872;27;20072;-50
2022/09/28 07:25:49;;;;;;;14.93;10.60;;;;;;;6.98;100.00;99561.31;5133694;27;20084;-50
2022/09/28 07:28:16;;;;;;;17.48;11.35;;;;;;;7.06;100.00;99573.47;5134965;27;20035;-49
2022/09/28 07:30:43;;;;;;;14.88;10.50;;;;;;;7.13;100.00;99582.16;5134558;27;20054;-49
2022/09/28 07:33:11;;;;;;;14.85;9.40;;;;;;;7.24;100.00;99578.16;5134506;27;20036;-49
2022/09/28 07:35:37;;;;;;;15.48;11.18;;;;;;;7.36;100.00;99586.91;5134583;27;20028;-48
2022/09/28 07:38:06;;;;;;;14.57;11.65;;;;;;;7.48;100.00;99576.94;5133797;27;20027;-50
2022/09/28 07:43:19;;;;;;;14.88;11.77;;;;;;;7.63;100.00;99585.78;5134543;27;20058;-50
2022/09/28 07:45:46;;;;;;;16.80;11.43;;;;;;;7.77;100.00;99591.22;5133565;27;20023;-49
2022/09/28 07:48:14;;;;;;;13.83;10.20;;;;;;;7.81;100.00;99588.75;5134426;27;20177;-49
2022/09/28 07:50:40;;;;;;;16.13;11.48;;;;;;;7.95;100.00;99590.72;5134175;27;20054;-51
2022/09/28 07:53:05;;;;;;;14.98;10.30;;;;;;;7.97;100.00;99589.06;5133638;27;20065;-49
2022/09/28 07:55:31;;;;;;;14.75;10.63;;;;;;;8.05;100.00;99579.81;5134136;27;20027;-47
2022/09/28 07:58:00;;;;;;;17.23;11.45;;;;;;;8.16;100.00;99591.16;5134491;27;20034;-51
2022/09/28 08:00:31;;;;;;;12.98;10.32;;;;;;;8.27;100.00;99590.50;5133463;27;20019;-49
2022/09/28 08:03:00;;;;;;;15.65;11.85;;;;;;;8.41;100.00;99586.47;5134179;27;20027;-49
2022/09/28 08:05:29;;;;;;;15.63;11.80;;;;;;;8.54;100.00;99593.56;5134433;27;20048;-50
2022/09/28 08:07:57;;;;;;;17.45;11.55;;;;;;;8.61;100.00;99588.56;5133274;27;20031;-49
2022/09/28 08:10:22;;;;;;;18.02;11.52;;;;;;;8.74;100.00;99598.22;5134247;27;20026;-49
2022/09/28 08:12:53;;;;;;;13.10;10.70;;;;;;;8.83;100.00;99606.06;5133909;27;20058;-47
2022/09/28 08:15:20;;;;;;;16.38;11.85;;;;;;;8.87;100.00;99592.44;5133365;27;20095;-50
2022/09/28 08:17:46;;;;;;;16.98;11.50;;;;;;;8.94;100.00;99598.53;5133674;27;20023;-49
2022/09/28 08:23:07;;;;;;;18.35;12.13;;;;;;;9.08;100.00;99601.31;5134626;27;20054;-49
2022/09/28 08:25:37;;;;;;;16.77;10.85;;;;;;;9.15;100.00;99603.13;5133754;27;20024;-50
2022/09/28 08:28:05;;;;;;;15.30;11.82;;;;;;;9.36;100.00;99604.28;5133015;27;20027;-49
2022/09/28 08:30:30;;;;;;;;;;;;;;;9.46;100.00;99613.84;5134489;27;20035;-45
2022/09/28 08:32:56;;;;;;;14.30;11.38;;;;;;;9.49;100.00;99619.06;5134011;28;20320;-45
2022/09/28 08:35:22;;;;;;;14.77;11.13;;;;;;;9.51;100.00;99621.66;5133093;28;20394;-47
2022/09/28 08:37:55;;;;;;;15.40;9.93;;;;;;;9.54;100.00;99614.84;5133644;28;20047;-47
2022/09/28 08:40:24;;;;;;;13.20;9.20;;;;;;;9.72;100.00;99615.94;5133706;28;20034;-48
2022/09/28 08:42:53;;;;;;;15.65;10.77;;;;;;;9.96;100.00;99624.81;5132690;28;20051;-47
2022/09/28 08:45:32;;;;;;;19.92;14.13;;;;;;;10.15;100.00;99621.63;5133966;28;20011;-45
2022/09/28 08:48:44;;;;;;;14.48;10.68;;;;;;;10.31;100.00;99622.63;5133690;28;20429;-49
2022/09/28 08:51:14;;;;;;;13.27;10.10;;;;;;;10.43;100.00;99637.41;5030610;28;20037;-46
2022/09/28 08:54:04;;;;;;;12.40;7.65;;;;;;;10.47;100.00;99628.88;5030366;28;20031;-46
2022/09/28 08:56:48;;;;;;;15.13;8.05;;;;;;;10.50;100.00;99639.19;5103924;28;20382;-46
2022/09/28 08:59:27;;;;;;;12.00;7.07;;;;;;;10.70;100.00;99641.97;5133609;28;20356;-49
2022/09/28 09:02:02;;;;;;;11.13;6.63;;;;;;;10.90;100.00;99637.84;5133684;28;20043;-51
2022/09/28 09:04:28;;;;;;;10.13;6.28;;;;;;;10.82;100.00;99641.22;5132675;28;20482;-48
2022/09/28 09:07:04;;;;;;;9.82;7.10;;;;;;;11.10;100.00;99651.75;5133474;28;20059;-49
2022/09/28 09:10:06;;;;;;;9.95;7.43;;;;;;;11.25;100.00;99647.59;5132682;28;20603;-46
2022/09/28 09:12:57;;;;;;;12.23;6.90;;;;;;;11.26;97.26;99649.31;5116085;28;20034;-48
2022/09/28 09:15:35;;;;;;;11.57;8.00;;;;;;;11.51;99.95;99648.63;5133673;28;20155;-50
2022/09/28 09:18:34;;;;;;;9.95;6.35;;;;;;;11.70;97.92;99659.06;5132689;28;20019;-51
2022/09/28 09:21:28;;;;;;;8.80;5.63;;;;;;;11.96;95.50;99646.31;5133356;28;20370;-49
2022/09/28 09:23:56;;;;;;;9.73;5.97;;;;;;;12.32;93.87;99654.22;5132424;28;20023;-48
2022/09/28 09:26:35;;;;;;;8.02;5.25;;;;;;;12.47;91.42;99656.84;5133152;28;20062;-44
2022/09/28 09:29:16;;;;;;;9.02;5.00;;;;;;;12.65;89.68;99655.16;5133466;28;20110;-45
2022/09/28 09:32:12;;;;;;;6.20;5.07;;;;;;;12.85;88.14;99660.38;5132863;27;20023;-50
2022/09/28 09:35:04;;;;;;;7.25;4.75;;;;;;;13.03;88.62;99656.94;5136783;27;20479;-49
2022/09/28 09:38:01;;;;;;;7.72;5.10;;;;;;;13.50;87.65;99666.44;5136481;27;20433;-50
2022/09/28 09:40:35;;;;;;;;;;;;;;;13.78;89.29;99658.59;5137518;27;20105;-50
2022/09/28 09:43:07;;;;;;;8.93;4.15;;;;;;;14.27;80.51;99656.69;5136685;27;20438;-50
2022/09/28 09:45:43;;;;;;;8.73;4.22;;;;;;;14.70;84.68;99659.06;5135772;27;20482;-47
2022/09/28 09:48:19;;;;;;;11.37;3.70;;;;;;;15.28;77.73;99667.28;5136996;27;20015;-49
2022/09/28 09:50:54;;;;;;;6.47;3.25;;;;;;;14.73;77.47;99676.34;5136524;27;20470;-49
2022/09/28 09:53:28;;;;;;;6.38;2.80;;;;;;;14.09;77.68;99678.38;5135898;27;20489;-49
2022/09/28 09:56:01;;;;;;;6.53;2.92;;;;;;;14.29;76.26;99667.91;5136616;27;20031;-46
2022/09/28 09:58:50;;;;;;;8.32;2.50;;;;;;;14.33;79.20;99675.66;5136261;27;20063;-44
2022/09/28 10:01:25;;;;;;;8.02;2.78;;;;;;;14.31;76.25;99664.44;5136732;27;20146;-47
2022/09/28 10:03:52;;;;;;;6.63;2.67;;;;;;;13.87;75.64;99669.81;5136329;27;20386;-46
2022/09/28 10:06:33;;;;;;;7.65;3.00;;;;;;;13.58;78.62;99673.31;5135942;27;20027;-48
2022/09/28 10:09:04;;;;;;;7.60;2.65;;;;;;;13.27;80.68;99673.31;5136538;27;20023;-48
2022/09/28 10:11:38;;;;;;;4.03;2.40;;;;;;;13.08;78.85;99673.31;5136556;27;20027;-45
2022/09/28 10:14:04;;;;;;;5.57;1.92;;;;;;;14.07;78.13;99667.13;5135597;27;20482;-46
2022/09/28 10:16:31;;;;;;;5.45;2.08;;;;;;;13.84;74.84;99670.69;5136251;27;20016;-48
2022/09/28 10:18:57;;;;;;;7.22;2.03;;;;;;;13.97;75.16;99671.50;5136458;27;20027;-46
2022/09/28 10:21:23;;;;;;;3.63;1.73;;;;;;;13.67;73.84;99673.28;5135542;27;20030;-45
2022/09/28 10:24:01;;;;;;;4.40;1.80;;;;;;;13.33;77.95;99662.97;5136045;27;20448;-47
2022/09/28 10:26:49;;;;;;;10.25;2.28;;;;;;;12.98;79.07;99671.59;5136144;27;20079;-47
2022/09/28 10:29:22;;;;;;;6.13;2.53;;;;;;;12.69;80.91;99680.13;5135880;27;20558;-46
2022/09/28 10:31:50;;;;;;;6.68;2.50;;;;;;;13.08;79.86;99673.31;5135790;27;20534;-47
2022/09/28 10:34:18;;;;;;;9.65;2.85;;;;;;;13.66;77.98;99667.25;5135379;27;20019;-48
2022/09/28 10:37:10;;;;;;;6.43;2.50;;;;;;;14.53;79.87;99664.34;5135698;27;20023;-46
2022/09/28 10:39:48;;;;;;;8.88;2.28;;;;;;;14.65;74.47;99666.00;5130675;27;20443;-48
2022/09/28 10:42:24;;;;;;;6.07;2.28;;;;;;;14.31;75.28;99666.19;5135014;27;20039;-48
2022/09/28 10:44:54;;;;;;;5.82;2.05;;;;;;;14.02;75.68;99667.19;5134342;27;20079;-48
2022/09/28 10:47:22;;;;;;;4.50;2.30;;;;;;;13.83;75.70;99667.22;5135753;27;20023;-49
2022/09/28 10:49:49;;;;;;;6.50;2.03;;;;;;;14.48;75.36;99664.34;5134441;27;20088;-48
2022/09/28 10:52:37;;;;;;;8.35;1.85;;;;;;;15.24;73.38;99663.84;5135779;27;20023;-45
2022/09/28 10:55:22;;;;;;;6.95;1.88;;;;;;;16.68;71.18;99662.25;5134955;27;20038;-48
2022/09/28 10:57:47;;;;;;;5.47;1.63;;;;;;;16.73;64.69;99655.25;5135232;27;20458;-44
2022/09/28 11:00:29;;;;;;;4.55;1.33;;;;;;;16.93;68.73;99667.97;5135335;27;20055;-47
2022/09/28 11:02:55;;;;;;;7.60;1.70;;;;;;;16.26;65.99;99659.34;5134790;27;20019;-48
2022/09/28 11:05:26;;;;;;;5.82;1.63;;;;;;;15.53;66.71;99656.69;5135307;27;20031;-44
2022/09/28 11:07:54;;;;;;;6.18;1.83;;;;;;;15.02;68.22;99662.34;5135072;27;20046;-46
2022/09/28 11:10:24;;;;;;;6.70;1.70;;;;;;;14.53;70.23;99666.06;5134319;27;20039;-48
2022/09/28 11:12:51;;;;;;;8.50;2.67;;;;;;;14.10;72.31;99667.13;5135072;27;20027;-47
2022/09/28 11:15:24;;;;;;;8.73;3.67;;;;;;;13.62;75.34;99667.25;5135245;27;20110;-48
2022/09/28 11:17:50;;;;;;;14.70;7.13;;;;;;;13.23;76.84;99664.69;5134083;27;20482;-47
2022/09/28 11:20:24;;;;;;;15.85;7.85;;;;;;;13.00;79.55;99660.38;5135182;27;20070;-47
2022/09/28 11:22:51;;;;;;;14.65;5.22;;;;;;;12.89;79.76;99666.41;5134260;27;20035;-46
2022/09/28 11:25:16;;;;;;;10.18;4.05;;;;;;;13.69;77.71;99660.38;5134984;27;20080;-46
2022/09/28 11:27:50;;;;;;;7.00;2.50;;;;;;;14.41;75.25;99657.50;5134839;27;20039;-45
2022/09/28 11:30:30;;;;;;;7.53;2.65;;;;;;;15.24;70.97;99657.81;5133959;27;20820;-47
2022/09/28 11:33:01;;;;;;;7.38;2.78;;;;;;;14.92;70.66;99653.75;5134734;27;20565;-48
2022/09/28 11:35:43;;;;;;;6.57;3.08;;;;;;;14.43;72.96;99655.72;5134764;27;20031;-48
2022/09/28 11:38:30;;;;;;;12.68;5.80;;;;;;;14.00;72.98;99656.78;5134081;27;20062;-47
2022/09/28 11:41:06;;;;;;;7.95;3.28;;;;;;;13.46;74.04;99659.50;5134832;27;20102;-48
2022/09/28 11:43:55;;;;;;;7.88;3.50;;;;;;;13.16;76.38;99671.59;5134370;27;20083;-47
2022/09/28 11:46:46;;;;;;;6.20;2.30;;;;;;;12.70;79.37;99665.50;5134686;27;20031;-48